Dades meteomassalio
Diari Summary for Febrer 28, 2017 Units:  Metric    English   Both
« Previous Day
Next Day »
Diari Semanal Mensual Anual Personalitzat
  Maxima: Minima: Mijana:
Temperatura: -17.8 °C -13.1 °C -10.8 °C
Rosada: -17.8 °C -15.9 °C -15.1 °C
Humitat: Humidity % 43 % 60 %
Velocitat del vent: 0 km/h 0 km/h 37.3 km/h
Racha vent: 0 km/h - -
Vent:- - WNW
Pressio: 0 hPa 34164.7 hPa -
Pluja: 0 mm    
Historical Graphs
 
 
Tabular Data for Febrer 28, 2017
Time Temperature Dew Point Pressure Wind Wind Speed Wind Gust Humidity Rainfall Rate (Hourly) solar Conditions
-17.8 °C -17.8 °C 0 hPa Calm     Humidity % 0 mm SolarRadiationWatts/m^2 W/m2 Conditions
00:02 -10.9 °C -15.6 °C 34293.4 hPa WSW 3.1 km/h 3.1 km/h 57 % 0 mm 0.0 W/m2 RA
00:07 -11.1 °C -15.5 °C 34293.4 hPa WSW 20.9 km/h 20.9 km/h 58 % 0 mm 0.0 W/m2 CLR
00:12 -11.1 °C -15.5 °C 34279.9 hPa SW 15 km/h 15 km/h 58 % 0 mm 0.0 W/m2 CLR
00:17 -11.1 °C -15.6 °C 34293.4 hPa SW 7.7 km/h 7.7 km/h 58 % 0 mm 0.0 W/m2 CLR
00:22 -11.2 °C -15.6 °C 34279.9 hPa Calm     58 % 0 mm 0.0 W/m2 CLR
00:27 -11.2 °C -15.6 °C 34279.9 hPa Calm     59 % 0 mm 0.0 W/m2 CLR
00:32 -11.4 °C -15.6 °C 34279.9 hPa WNW 17.9 km/h 17.9 km/h 60 % 0 mm 0.0 W/m2 CLR
00:37 -11.2 °C -15.5 °C 34279.9 hPa WSW 32.8 km/h 32.8 km/h 59 % 0 mm 0.0 W/m2 CLR
00:42 -10.9 °C -15.4 °C 34279.9 hPa WNW 15 km/h 15 km/h 58 % 0 mm 0.0 W/m2 CLR
00:47 -10.9 °C -15.5 °C 34293.4 hPa Calm     57 % 0 mm 0.0 W/m2 CLR
00:52 -11 °C -15.4 °C 34279.9 hPa West 9 km/h 9 km/h 58 % 0 mm 0.0 W/m2 CLR
00:57 -10.9 °C -15.4 °C 34279.9 hPa WSW 29.8 km/h 29.8 km/h 58 % 0 mm 0.0 W/m2 CLR
01:02 -10.9 °C -15.5 °C 34279.9 hPa West 18.2 km/h 18.2 km/h 57 % 0 mm 0.0 W/m2 CLR
01:07 -10.9 °C -15.4 °C 34279.9 hPa West 23.8 km/h 23.8 km/h 58 % 0 mm 0.0 W/m2 CLR
01:12 -10.9 °C -15.4 °C 34279.9 hPa NW 29.8 km/h 29.8 km/h 58 % 0 mm 0.0 W/m2 CLR
01:17 -10.9 °C -15.4 °C 34279.9 hPa WNW 35.7 km/h 35.7 km/h 58 % 0 mm 0.0 W/m2 CLR
01:22 -10.8 °C -15.4 °C 34279.9 hPa West 36.2 km/h 36.2 km/h 57 % 0 mm 0.0 W/m2 CLR
01:27 -10.8 °C -15.4 °C 34279.9 hPa West 35.7 km/h 35.7 km/h 57 % 0 mm 0.0 W/m2 CLR
01:32 -10.8 °C -15.4 °C 34279.9 hPa West 23.8 km/h 23.8 km/h 57 % 0 mm 0.0 W/m2 CLR
01:37 -10.9 °C -15.4 °C 34279.9 hPa West 29.8 km/h 29.8 km/h 57 % 0 mm 0.0 W/m2 CLR
01:42 -10.8 °C -15.4 °C 34279.9 hPa West 53.6 km/h 53.6 km/h 57 % 0 mm 0.0 W/m2 CLR
01:47 -10.7 °C -15.4 °C 34279.9 hPa WSW 44.7 km/h 44.7 km/h 56 % 0 mm 0.0 W/m2 CLR
01:52 -10.7 °C -15.4 °C 34279.9 hPa West 38.8 km/h 38.8 km/h 56 % 0 mm 0.0 W/m2 CLR
01:57 -10.6 °C -15.5 °C 34279.9 hPa West 53.6 km/h 53.6 km/h 55 % 0 mm 0.0 W/m2 CLR
02:02 -10.6 °C -15.4 °C 34279.9 hPa West 41.4 km/h 41.4 km/h 56 % 0 mm 0.0 W/m2 CLR
02:07 -10.7 °C -15.4 °C 34279.9 hPa WSW 38.8 km/h 38.8 km/h 56 % 0 mm 0.0 W/m2 CLR
02:12 -10.7 °C -15.5 °C 34269.7 hPa West 35.7 km/h 35.7 km/h 56 % 0 mm 0.0 W/m2 CLR
02:17 -10.8 °C -15.6 °C 34269.7 hPa WSW 29.8 km/h 29.8 km/h 56 % 0 mm 0.0 W/m2 CLR
02:22 -10.9 °C -15.5 °C 34269.7 hPa WNW 29.8 km/h 29.8 km/h 57 % 0 mm 0.0 W/m2 CLR
02:27 -10.9 °C -15.5 °C 34269.7 hPa WNW 32.8 km/h 32.8 km/h 57 % 0 mm 0.0 W/m2 CLR
02:33 -10.9 °C -15.4 °C 34269.7 hPa WNW 29.8 km/h 31.4 km/h 58 % 0 mm 0.0 W/m2 CLR
02:37 -10.9 °C -15.4 °C 34256.2 hPa West 31.1 km/h 31.1 km/h 58 % 0 mm 0.0 W/m2 CLR
02:43 -11 °C -15.4 °C 34256.2 hPa WNW 35.7 km/h 35.7 km/h 58 % 0 mm 0.0 W/m2 CLR
02:48 -11 °C -15.4 °C 34256.2 hPa West 32.8 km/h 32.8 km/h 58 % 0 mm 0.0 W/m2 CLR
02:53 -11.1 °C -15.4 °C 34256.2 hPa West 29.8 km/h 29.8 km/h 59 % 0 mm 0.0 W/m2 CLR
02:58 -11.1 °C -15.4 °C 34246 hPa SW 11.9 km/h 11.9 km/h 59 % 0 mm 0.0 W/m2 CLR
03:03 -11.3 °C -15.6 °C 34256.2 hPa Calm     59 % 0 mm 0.0 W/m2 CLR
03:08 -11.4 °C -15.6 °C 34256.2 hPa Calm     60 % 0 mm 0.0 W/m2 CLR
03:13 -11.6 °C -15.6 °C 34246 hPa Calm     61 % 0 mm 0.0 W/m2 CLR
03:18 -11.6 °C -15.5 °C 34246 hPa Calm     62 % 0 mm 0.0 W/m2 CLR
03:23 -11.7 °C -15.6 °C 34246 hPa Calm     62 % 0 mm 0.0 W/m2 CLR
03:28 -11.8 °C -15.5 °C 34246 hPa WSW 6 km/h 6 km/h 63 % 0 mm 0.0 W/m2 CLR
03:33 -11.8 °C -15.5 °C 34246 hPa West 9 km/h 9 km/h 63 % 0 mm 0.0 W/m2 CLR
03:38 -11.7 °C -15.5 °C 34235.8 hPa WSW 17.9 km/h 17.9 km/h 63 % 0 mm 0.0 W/m2 CLR
03:43 -11.5 °C -15.4 °C 34246 hPa West 38.8 km/h 38.8 km/h 62 % 0 mm 0.0 W/m2 CLR
03:48 -11.2 °C -15.4 °C 34235.8 hPa SW 29.8 km/h 29.8 km/h 60 % 0 mm 0.0 W/m2 CLR
03:53 -11.2 °C -15.4 °C 34235.8 hPa SW 38.8 km/h 38.8 km/h 60 % 0 mm 0.0 W/m2 CLR
03:58 -11.2 °C -15.4 °C 34235.8 hPa West 50.7 km/h 50.7 km/h 60 % 0 mm 0.0 W/m2 CLR
04:03 -11.1 °C -15.4 °C 34235.8 hPa West 44.7 km/h 44.7 km/h 59 % 0 mm 0.0 W/m2 CLR
04:08 -11 °C -15.3 °C 34235.8 hPa West 44.7 km/h 44.7 km/h 59 % 0 mm 0.0 W/m2 CLR
04:13 -11 °C -15.3 °C 34235.8 hPa West 29.8 km/h 29.8 km/h 59 % 0 mm 0.0 W/m2 CLR
04:18 -11.1 °C -15.4 °C 34235.8 hPa West 47.6 km/h 47.6 km/h 59 % 0 mm 0.0 W/m2 CLR
04:23 -11.1 °C -15.4 °C 34235.8 hPa WNW 41.7 km/h 41.7 km/h 59 % 0 mm 0.0 W/m2 CLR
04:28 -11.1 °C -15.2 °C 34222.3 hPa WSW 32.8 km/h 32.8 km/h 60 % 0 mm 0.0 W/m2 CLR
04:33 -11.1 °C -15.3 °C 34235.8 hPa West 29.8 km/h 29.8 km/h 60 % 0 mm 0.0 W/m2 CLR
04:38 -11.2 °C -15.3 °C 34235.8 hPa West 36.2 km/h 36.2 km/h 60 % 0 mm 0.0 W/m2 CLR
04:43 -11.2 °C -15.3 °C 34235.8 hPa SW 35.7 km/h 35.7 km/h 60 % 0 mm 0.0 W/m2 CLR
04:48 -11.3 °C -15.3 °C 34235.8 hPa West 29.8 km/h 29.8 km/h 61 % 0 mm 0.0 W/m2 CLR
04:53 -11.3 °C -15.4 °C 34235.8 hPa West 29.8 km/h 29.8 km/h 61 % 0 mm 0.0 W/m2 CLR
04:58 -11.4 °C -15.3 °C 34235.8 hPa West 29.8 km/h 29.8 km/h 62 % 0 mm 0.0 W/m2 CLR
05:03 -11.4 °C -15.4 °C 34235.8 hPa WSW 23.8 km/h 23.8 km/h 62 % 0 mm 0.0 W/m2 CLR
05:08 -11.5 °C -15.3 °C 34235.8 hPa WSW 6 km/h 6 km/h 63 % 0 mm 0.0 W/m2 CLR
05:13 -11.6 °C -15.4 °C 34235.8 hPa WSW 15 km/h 15 km/h 63 % 0 mm 0.0 W/m2 CLR
05:18 -11.8 °C -15.4 °C 34235.8 hPa West 10.3 km/h 10.3 km/h 64 % 0 mm 0.0 W/m2 CLR
05:23 -11.9 °C -15.4 °C 34235.8 hPa West 9 km/h 9 km/h 65 % 0 mm 0.0 W/m2 CLR
05:28 -12 °C -15.4 °C 34235.8 hPa WSW 11.9 km/h 11.9 km/h 66 % 0 mm 0.0 W/m2 CLR
05:33 -11.9 °C -15.3 °C 34235.8 hPa WSW 11.9 km/h 11.9 km/h 66 % 0 mm 0.0 W/m2 CLR
05:38 -11.9 °C -15.3 °C 34235.8 hPa WSW 9 km/h 9 km/h 66 % 0 mm 0.0 W/m2 CLR
05:43 -11.9 °C -15.2 °C 34235.8 hPa West 20.9 km/h 20.9 km/h 67 % 0 mm 0.0 W/m2 CLR
05:48 -11.7 °C -15.1 °C 34235.8 hPa West 31.1 km/h 31.1 km/h 66 % 0 mm 0.0 W/m2 CLR
05:53 -11.6 °C -15.1 °C 34235.8 hPa West 29.8 km/h 29.8 km/h 65 % 0 mm 0.0 W/m2 CLR
05:58 -11.6 °C -15.1 °C 34235.8 hPa WNW 26.9 km/h 26.9 km/h 65 % 0 mm 0.0 W/m2 CLR
06:03 -11.6 °C -15.1 °C 34235.8 hPa West 9 km/h 9 km/h 65 % 0 mm 0.0 W/m2 CLR
06:08 -11.6 °C -15.1 °C 34235.8 hPa West 29.8 km/h 29.8 km/h 65 % 0 mm 0.0 W/m2 CLR
06:13 -11.6 °C -15.1 °C 34235.8 hPa West 9 km/h 9 km/h 65 % 0 mm 0.0 W/m2 CLR
06:18 -11.6 °C -15.2 °C 34235.8 hPa WNW 7.7 km/h 7.7 km/h 65 % 0 mm 0.0 W/m2 CLR
06:23 -11.7 °C -15.1 °C 34235.8 hPa WNW 10.3 km/h 10.3 km/h 66 % 0 mm 0.0 W/m2 CLR
06:28 -11.7 °C -15.1 °C 34235.8 hPa West 20.9 km/h 20.9 km/h 66 % 0 mm 0.0 W/m2 CLR
06:33 -11.6 °C -15 °C 34235.8 hPa WNW 15 km/h 15 km/h 66 % 0 mm 0.0 W/m2 CLR
06:38 -11.6 °C -15.1 °C 34235.8 hPa WNW 11.9 km/h 11.9 km/h 66 % 0 mm 0.0 W/m2 CLR
06:43 -11.7 °C -15.1 °C 34235.8 hPa WNW 11.9 km/h 11.9 km/h 66 % 0 mm 0.0 W/m2 CLR
06:48 -11.8 °C -15.2 °C 34235.8 hPa West 12.9 km/h 12.9 km/h 66 % 0 mm 0.0 W/m2 CLR
06:53 -11.7 °C -15.1 °C 34246 hPa WNW 11.9 km/h 11.9 km/h 66 % 0 mm 0.0 W/m2 CLR
06:58 -11.7 °C -15.1 °C 34235.8 hPa West 12.9 km/h 12.9 km/h 66 % 0 mm 0.0 W/m2 CLR
07:03 -11.7 °C -15.1 °C 34235.8 hPa West 12.9 km/h 12.9 km/h 66 % 0 mm 0.0 W/m2 CLR
07:08 -11.7 °C -15.1 °C 34235.8 hPa West 12.9 km/h 12.9 km/h 66 % 0 mm 0.0 W/m2 CLR
07:13 -11.7 °C -15.1 °C 34235.8 hPa West 10.3 km/h 10.3 km/h 66 % 0 mm 0.0 W/m2 CLR
07:18 -11.7 °C -15.1 °C 34235.8 hPa West 9 km/h   66 % 0 mm 0.0 W/m2 CLR
07:23 -11.8 °C -15.1 °C 34235.8 hPa Calm     67 % 0 mm 0.0 W/m2 CLR
07:28 -11.9 °C -15.2 °C 34246 hPa Calm     67 % 0 mm 0.0 W/m2 OVC
07:33 -12.1 °C -15.2 °C 34246 hPa Calm     68 % 0 mm 0.0 W/m2 OVC
07:38 -12.3 °C -15.2 °C 34235.8 hPa Calm     70 % 0 mm 5.0 W/m2 OVC
07:43 -12.6 °C -15.3 °C 34235.8 hPa Calm     71 % 0 mm 7.0 W/m2 BKN
07:48 -12.7 °C -15.3 °C 34235.8 hPa Calm     72 % 0 mm 11.0 W/m2 BKN
07:53 -12.7 °C -15.2 °C 34235.8 hPa Calm     73 % 0 mm 19.0 W/m2 BKN
07:58 -12.7 °C -15.3 °C 34246 hPa WSW 6 km/h   73 % 0 mm 28.0 W/m2 BKN
08:04 -12.7 °C -15.1 °C 34246 hPa Calm     74 % 0 mm 35.0 W/m2 BKN
08:09 -12.7 °C -15.1 °C 34246 hPa Calm     74 % 0 mm 39.0 W/m2 BKN
08:14 -12.7 °C -15.2 °C 34246 hPa Calm     74 % 0 mm 40.0 W/m2 BKN
08:19 -12.9 °C -15.2 °C 34246 hPa WSW 9 km/h 9 km/h 75 % 0 mm 44.0 W/m2 BKN
08:24 -12.8 °C -15.1 °C 34246 hPa WSW 9 km/h   76 % 0 mm 47.0 W/m2 SCT
08:29 -12.7 °C -15.1 °C 34256.2 hPa Calm     75 % 0 mm 54.0 W/m2 SCT
08:34 -12.6 °C -14.9 °C 34256.2 hPa Calm     75 % 0 mm 63.0 W/m2 SCT
08:39 -12.4 °C -14.9 °C 34256.2 hPa Calm     74 % 0 mm 69.0 W/m2 SCT
08:44 -12.3 °C -14.9 °C 34256.2 hPa Calm     73 % 0 mm 72.0 W/m2 FEW
08:49 -12.3 °C -14.9 °C 34256.2 hPa Calm     73 % 0 mm 79.0 W/m2 FEW
08:54 -12.4 °C -14.8 °C 34256.2 hPa Calm     74 % 0 mm 84.0 W/m2 FEW
08:59 -12.4 °C -14.8 °C 34269.7 hPa Calm     75 % 0 mm 91.0 W/m2 FEW
09:04 -12.6 °C -14.9 °C 34256.2 hPa Calm     75 % 0 mm 102.0 W/m2 CLR
09:09 -12.6 °C -14.8 °C 34269.7 hPa Calm     76 % 0 mm 121.0 W/m2 CLR
09:14 -12.4 °C -14.7 °C 34269.7 hPa Calm     76 % 0 mm 130.0 W/m2 CLR
09:19 -12.4 °C -14.7 °C 34269.7 hPa Calm     76 % 0 mm 135.0 W/m2 CLR
09:24 -12.4 °C -14.7 °C 34269.7 hPa Calm     76 % 0 mm 135.0 W/m2 CLR
09:29 -12.3 °C -14.5 °C 34269.7 hPa WNW 10.3 km/h 10.3 km/h 77 % 0 mm 144.0 W/m2 CLR
09:34 -12 °C -14.5 °C 34269.7 hPa West 9 km/h 9 km/h 74 % 0 mm 141.0 W/m2 CLR
09:39 -11.6 °C -14.4 °C 34269.7 hPa WNW 15.6 km/h 15.6 km/h 71 % 0 mm 123.0 W/m2 CLR
09:44 -11.2 °C -14.5 °C 34269.7 hPa West 20.9 km/h 20.9 km/h 67 % 0 mm 114.0 W/m2 CLR
09:49 -11 °C -14.6 °C 34269.7 hPa West 20.9 km/h 20.9 km/h 65 % 0 mm 121.0 W/m2 CLR
09:54 -10.9 °C -14.6 °C 34269.7 hPa West 23.8 km/h 23.8 km/h 64 % 0 mm 176.0 W/m2 CLR
09:59 -10.8 °C -14.5 °C 34269.7 hPa West 17.9 km/h 17.9 km/h 64 % 0 mm 190.0 W/m2 CLR
10:04 -10.8 °C -14.6 °C 34269.7 hPa West 11.9 km/h 11.9 km/h 63 % 0 mm 179.0 W/m2 CLR
10:09 -10.7 °C -14.4 °C 34269.7 hPa West 15 km/h 15 km/h 64 % 0 mm 167.0 W/m2 CLR
10:14 -10.7 °C -14.4 °C 34256.2 hPa Calm     64 % 0 mm 179.0 W/m2 CLR
10:19 -10.7 °C -14.2 °C 34256.2 hPa Calm     65 % 0 mm 183.0 W/m2 CLR
10:24 -10.6 °C -14.3 °C 34256.2 hPa Calm     64 % 0 mm 167.0 W/m2 CLR
10:29 -10.6 °C -14.2 °C 34256.2 hPa Calm     65 % 0 mm 153.0 W/m2 CLR
10:34 -10.5 °C -14.3 °C 34256.2 hPa WNW 17.9 km/h 17.9 km/h 63 % 0 mm 151.0 W/m2 CLR
10:39 -10.4 °C -14.4 °C 34256.2 hPa NW 11.9 km/h 11.9 km/h 62 % 0 mm 174.0 W/m2 CLR
10:44 -10.4 °C -14.3 °C 34256.2 hPa NNW 9 km/h 9 km/h 63 % 0 mm 232.0 W/m2 CLR
10:49 -10.3 °C -14.2 °C 34256.2 hPa Calm     63 % 0 mm 315.0 W/m2 CLR
10:54 -10.2 °C -14.2 °C 34256.2 hPa NW 9 km/h 9 km/h 62 % 0 mm 341.0 W/m2 CLR
10:59 -10.1 °C -14.2 °C 34256.2 hPa Calm     61 % 0 mm 369.0 W/m2 CLR
11:04 -9.9 °C -14.1 °C 34256.2 hPa WNW 29.8 km/h 29.8 km/h 60 % 0 mm 563.0 W/m2 CLR
11:09 -9.7 °C -14.1 °C 34246 hPa NNW 20.9 km/h 20.9 km/h 59 % 0 mm 534.0 W/m2 CLR
11:14 -9.6 °C -14.2 °C 34246 hPa NNW 20.8 km/h 20.8 km/h 58 % 0 mm 438.0 W/m2 CLR
11:19 -9.6 °C -14.3 °C 34246 hPa NNW 29.8 km/h 29.8 km/h 57 % 0 mm 348.0 W/m2 CLR
11:24 -9.4 °C -14.1 °C 34246 hPa NW 47.6 km/h 47.6 km/h 57 % 0 mm 712.0 W/m2 CLR
11:29 -9.4 °C -14.1 °C 34246 hPa NW 41.7 km/h 41.7 km/h 57 % 0 mm 749.0 W/m2 CLR
11:34 -9.3 °C -14.2 °C 34246 hPa NW 44.7 km/h 44.7 km/h 56 % 0 mm 777.0 W/m2 CLR
11:39 -9.3 °C -14.1 °C 34246 hPa West 29.8 km/h 29.8 km/h 56 % 0 mm 738.0 W/m2 CLR
11:44 -9.1 °C -14.2 °C 34246 hPa NNW 38.8 km/h 38.8 km/h 54 % 0 mm 603.0 W/m2 CLR
11:49 -9.1 °C -14.1 °C 34246 hPa West 32.8 km/h 32.8 km/h 55 % 0 mm 584.0 W/m2 CLR
11:54 -9.1 °C -14.7 °C 34246 hPa West 32.8 km/h 32.8 km/h 51 % 0 mm 645.0 W/m2 CLR
11:59 -9.1 °C -14.4 °C 34246 hPa WNW 29.8 km/h 29.8 km/h 53 % 0 mm 338.0 W/m2 CLR
12:04 -9.1 °C -14.8 °C 34246 hPa WNW 53.6 km/h 53.6 km/h 50 % 0 mm 345.0 W/m2 CLR
12:09 -9.1 °C -14.9 °C 34246 hPa NNW 50.7 km/h 50.7 km/h 50 % 0 mm 334.0 W/m2 CLR
12:14 -9.1 °C -14.8 °C 34246 hPa WNW 46.7 km/h 46.7 km/h 51 % 0 mm 338.0 W/m2 CLR
12:19 -9.2 °C -14.8 °C 34246 hPa NW 50.7 km/h 50.7 km/h 51 % 0 mm 350.0 W/m2 CLR
12:24 -9.1 °C -14.6 °C 34235.8 hPa WNW 29.8 km/h 29.8 km/h 52 % 0 mm 364.0 W/m2 CLR
12:29 -9 °C -14.6 °C 34246 hPa West 53.6 km/h 53.6 km/h 51 % 0 mm 459.0 W/m2 CLR
12:34 -8.9 °C -14.8 °C 34235.8 hPa WNW 53.6 km/h 53.6 km/h 50 % 0 mm 504.0 W/m2 CLR
12:39 -8.9 °C -14.8 °C 34235.8 hPa West 56.6 km/h 56.6 km/h 50 % 0 mm 415.0 W/m2 CLR
12:44 -8.9 °C -14.6 °C 34222.3 hPa West 62.6 km/h 62.6 km/h 51 % 0 mm 434.0 W/m2 CLR
12:49 -8.9 °C -14.9 °C 34222.3 hPa West 65.5 km/h 65.5 km/h 49 % 0 mm 424.0 W/m2 CLR
12:54 -9.1 °C -14.7 °C 34222.3 hPa NW 59.5 km/h 59.5 km/h 51 % 0 mm 306.0 W/m2 CLR
12:59 -8.9 °C -14.8 °C 34222.3 hPa West 50.7 km/h 50.7 km/h 49 % 0 mm 571.0 W/m2 CLR
13:04 -8.7 °C -14.7 °C 34212.1 hPa NW 50.7 km/h 50.7 km/h 49 % 0 mm 650.0 W/m2 CLR
13:09 -8.4 °C -14.1 °C 34212.1 hPa West 44.7 km/h 44.7 km/h 51 % 0 mm 605.0 W/m2 CLR
13:14 -8.3 °C -14.3 °C 34212.1 hPa WNW 54.4 km/h 54.4 km/h 49 % 0 mm 649.0 W/m2 CLR
13:19 -8.4 °C -14.9 °C 34212.1 hPa West 56.6 km/h 56.6 km/h 46 % 0 mm 647.0 W/m2 CLR
13:24 -8.7 °C -14.8 °C 34212.1 hPa WNW 62.1 km/h 62.1 km/h 48 % 0 mm 445.0 W/m2 CLR
13:29 -8.8 °C -14.9 °C 34198.6 hPa NW 62.1 km/h 62.1 km/h 48 % 0 mm 397.0 W/m2 CLR
13:35 -8.8 °C -14.8 °C 34198.6 hPa WNW 59.5 km/h 59.5 km/h 49 % 0 mm 373.0 W/m2 CLR
13:40 -8.7 °C -14.8 °C 34198.6 hPa West 47.6 km/h 47.6 km/h 48 % 0 mm 497.0 W/m2 CLR
13:45 -8.6 °C -14.8 °C 34198.6 hPa WNW 65.5 km/h 65.5 km/h 48 % 0 mm 652.0 W/m2 CLR
13:50 -8.6 °C -14.9 °C 34198.6 hPa WNW 65.5 km/h 65.5 km/h 47 % 0 mm 540.0 W/m2 CLR
13:55 -8.5 °C -14.8 °C 34188.4 hPa West 77.4 km/h 77.4 km/h 47 % 0 mm 464.0 W/m2 CLR
14:00 -8.4 °C -14.6 °C 34188.4 hPa West 53.6 km/h 53.6 km/h 48 % 0 mm 357.0 W/m2 CLR
14:05 -8.4 °C -14.8 °C 34188.4 hPa WSW 64.7 km/h 64.7 km/h 47 % 0 mm 439.0 W/m2 CLR
14:10 -8.4 °C -14.9 °C 34188.4 hPa NW 74.5 km/h 74.5 km/h 46 % 0 mm 613.0 W/m2 CLR
14:15 -8.3 °C -14.6 °C 34188.4 hPa WNW 83.4 km/h 83.4 km/h 47 % 0 mm 650.0 W/m2 CLR
14:20 -8.1 °C -14.6 °C 34188.4 hPa WNW 83.4 km/h 83.4 km/h 46 % 0 mm 598.0 W/m2 CLR
14:25 -8.2 °C -14.8 °C 34188.4 hPa NNW 83.4 km/h 83.4 km/h 45 % 0 mm 499.0 W/m2 CLR
14:30 -8.3 °C -14.8 °C 34188.4 hPa WNW 86.4 km/h 86.4 km/h 46 % 0 mm 406.0 W/m2 CLR
14:35 -8.2 °C -14.6 °C 34178.3 hPa NW 68.6 km/h 68.6 km/h 47 % 0 mm 719.0 W/m2 CLR
14:40 -8.1 °C -14.8 °C 34178.3 hPa West 89.3 km/h 89.3 km/h 45 % 0 mm 570.0 W/m2 CLR
14:45 -8 °C -14.4 °C 34164.7 hPa West 56.6 km/h 56.6 km/h 47 % 0 mm 587.0 W/m2 CLR
14:50 -8 °C -14.7 °C 34164.7 hPa WNW 71.5 km/h 71.5 km/h 45 % 0 mm 596.0 W/m2 CLR
14:55 -7.8 °C -14.5 °C 34178.3 hPa West 68.6 km/h 68.6 km/h 45 % 0 mm 557.0 W/m2 CLR
15:00 -7.9 °C -15 °C 34164.7 hPa WNW 68.6 km/h 68.6 km/h 43 % 0 mm 441.0 W/m2 CLR
15:05 -8.1 °C -14.9 °C 34164.7 hPa West 59.5 km/h 59.5 km/h 44 % 0 mm 413.0 W/m2 CLR
15:10 -8.1 °C -14.8 °C 34164.7 hPa WNW 77.4 km/h 77.4 km/h 45 % 0 mm 508.0 W/m2 CLR
15:15 -7.9 °C -14.7 °C 34164.7 hPa WNW 74.5 km/h 74.5 km/h 45 % 0 mm 555.0 W/m2 CLR
15:20 -8 °C -14.7 °C 34164.7 hPa NW 69.8 km/h 69.8 km/h 45 % 0 mm 519.0 W/m2 CLR
15:25 -7.9 °C -14.7 °C 34164.7 hPa WNW 56.6 km/h 56.6 km/h 45 % 0 mm 548.0 W/m2 CLR
15:30 -7.8 °C -14.5 °C 34164.7 hPa NW 47.6 km/h 47.6 km/h 45 % 0 mm 612.0 W/m2 CLR
15:35 -7.9 °C -14.8 °C 34164.7 hPa West 77.4 km/h 77.4 km/h 44 % 0 mm 146.0 W/m2 CLR
15:40 -7.8 °C -14.7 °C 34164.7 hPa West 50.7 km/h 50.7 km/h 44 % 0 mm 524.0 W/m2 CLR
15:45 -7.9 °C -14.7 °C 34164.7 hPa West 59.5 km/h 59.5 km/h 45 % 0 mm 531.0 W/m2 CLR
15:50 -8 °C -14.6 °C 34164.7 hPa WNW 67.3 km/h 67.3 km/h 46 % 0 mm 163.0 W/m2 CLR
15:55 -8.2 °C -14.9 °C 34164.7 hPa WNW 53.6 km/h 53.6 km/h 45 % 0 mm 132.0 W/m2 CLR
16:00 -8.2 °C -14.7 °C 34164.7 hPa NW 53.6 km/h 53.6 km/h 46 % 0 mm 167.0 W/m2 CLR
16:05 -8.2 °C -14.7 °C 34178.3 hPa WNW 53.6 km/h 53.6 km/h 46 % 0 mm 153.0 W/m2 CLR
16:10 -8.2 °C -14.9 °C 34164.7 hPa West 62.6 km/h 62.6 km/h 45 % 0 mm 172.0 W/m2 CLR
16:15 -8.2 °C -14.9 °C 34178.3 hPa NW 59.5 km/h 59.5 km/h 45 % 0 mm 134.0 W/m2 CLR
16:20 -8.2 °C -14.7 °C 34178.3 hPa NW 38.8 km/h 38.8 km/h 46 % 0 mm 134.0 W/m2 CLR
16:25 -8.2 °C -14.7 °C 34178.3 hPa NW 41.4 km/h 41.4 km/h 46 % 0 mm 134.0 W/m2 CLR
16:30 -8.2 °C -14.7 °C 34178.3 hPa NNW 50.7 km/h 50.7 km/h 46 % 0 mm 144.0 W/m2 CLR
16:35 -8.1 °C -14.6 °C 34178.3 hPa WNW 50.7 km/h 50.7 km/h 46 % 0 mm 120.0 W/m2 CLR
16:40 -8.2 °C -14.8 °C 34178.3 hPa NW 47.6 km/h 47.6 km/h 45 % 0 mm 123.0 W/m2 CLR
16:45 -8.2 °C -14.8 °C 34178.3 hPa NW 53.6 km/h 53.6 km/h 46 % 0 mm 79.0 W/m2 CLR
16:50 -8.3 °C -14.8 °C 34178.3 hPa NW 50.7 km/h 50.7 km/h 46 % 0 mm 97.0 W/m2 CLR
16:55 -8.3 °C -14.8 °C 34178.3 hPa WNW 69.8 km/h 69.8 km/h 46 % 0 mm 91.0 W/m2 CLR
17:00 -8.3 °C -14.7 °C 34178.3 hPa NW 56.6 km/h 56.6 km/h 47 % 0 mm 86.0 W/m2 CLR
17:05 -8.3 °C -14.7 °C 34188.4 hPa NNW 57 km/h 57 km/h 47 % 0 mm 102.0 W/m2 CLR
17:10 -8.3 °C -14.7 °C 34188.4 hPa NNW 65.5 km/h 65.5 km/h 47 % 0 mm 107.0 W/m2 CLR
17:15 -8.4 °C -14.7 °C 34188.4 hPa NNW 50.7 km/h 50.7 km/h 47 % 0 mm 72.0 W/m2 CLR
17:20 -8.4 °C -14.6 °C 34198.6 hPa NW 56.6 km/h 56.6 km/h 48 % 0 mm 93.0 W/m2 FEW
17:25 -8.4 °C -14.8 °C 34198.6 hPa NNW 88 km/h 88 km/h 47 % 0 mm 79.0 W/m2 FEW
17:30 -8.5 °C -14.9 °C 34212.1 hPa NW 71.5 km/h 71.5 km/h 46 % 0 mm 53.0 W/m2 FEW
17:35 -8.6 °C -15.1 °C 34198.6 hPa WNW 65.5 km/h 65.5 km/h 46 % 0 mm 63.0 W/m2 FEW
17:40 -8.6 °C -15.1 °C 34212.1 hPa NW 59.5 km/h 59.5 km/h 46 % 0 mm 60.0 W/m2 SCT
17:45 -8.6 °C -15.1 °C 34212.1 hPa NW 82.9 km/h 82.9 km/h 46 % 0 mm 72.0 W/m2 SCT
17:50 -8.6 °C -15.1 °C 34212.1 hPa NW 62.6 km/h 62.6 km/h 46 % 0 mm 60.0 W/m2 SCT
17:55 -8.6 °C -15.1 °C 34212.1 hPa NNW 68.6 km/h 68.6 km/h 46 % 0 mm 30.0 W/m2 BKN
18:00 -8.6 °C -15.1 °C 34222.3 hPa NW 68.6 km/h 68.6 km/h 46 % 0 mm 18.0 W/m2 BKN
18:05 -8.7 °C -14.9 °C 34222.3 hPa NW 47.6 km/h 47.6 km/h 47 % 0 mm 14.0 W/m2 BKN
18:10 -8.6 °C -15.1 °C 34222.3 hPa NW 59.5 km/h 59.5 km/h 46 % 0 mm 16.0 W/m2 BKN
18:15 -8.7 °C -14.9 °C 34246 hPa NW 101.2 km/h 101.2 km/h 47 % 0 mm 12.0 W/m2 BKN
18:20 -9.2 °C -14.8 °C 34246 hPa NNW 89.3 km/h 89.3 km/h 51 % 0 mm 11.0 W/m2 BKN
18:25 -9.4 °C -14.7 °C 34256.2 hPa North 80.5 km/h 80.5 km/h 53 % 0 mm 7.0 W/m2 BKN
18:30 -9.6 °C -14.6 °C 34269.7 hPa NNW 80.5 km/h 80.5 km/h 55 % 0 mm 9.0 W/m2 BKN
18:35 -9.9 °C -14.6 °C 34269.7 hPa NW 86.4 km/h 86.4 km/h 57 % 0 mm 7.0 W/m2 BKN
18:40 -10.3 °C -14.5 °C 34279.9 hPa NNW 86.4 km/h 86.4 km/h 60 % 0 mm 5.0 W/m2
18:45 -10.5 °C -14.5 °C 34293.4 hPa NNW 65.5 km/h 65.5 km/h 62 % 0 mm 0.0 W/m2 OVC
18:50 -10.7 °C -14.6 °C 34303.6 hPa NW 71.5 km/h 71.5 km/h 63 % 0 mm 0.0 W/m2 OVC
18:55 -10.9 °C -14.7 °C 34313.7 hPa NNW 77.4 km/h 77.4 km/h 63 % 0 mm 0.0 W/m2 OVC
19:00 -11 °C -14.7 °C 34327.3 hPa NW 53.6 km/h 53.6 km/h 64 % 0 mm 0.0 W/m2 CLR
19:05 -11.1 °C -14.9 °C 34327.3 hPa NNW 74.5 km/h 74.5 km/h 63 % 0 mm 0.0 W/m2 CLR
19:10 -11.2 °C -15.2 °C 34327.3 hPa NW 59.5 km/h 59.5 km/h 62 % 0 mm 0.0 W/m2 CLR
19:16 -11.4 °C -15.4 °C 34337.4 hPa NNW 50.7 km/h 50.7 km/h 61 % 0 mm 0.0 W/m2 CLR
19:21 -11.6 °C -15.6 °C 34347.6 hPa NNW 59.5 km/h 59.5 km/h 61 % 0 mm 0.0 W/m2 CLR
19:26 -11.7 °C -15.7 °C 34361.1 hPa NNW 53.6 km/h 53.6 km/h 61 % 0 mm 0.0 W/m2 CLR
19:31 -11.8 °C -15.7 °C 34361.1 hPa NNW 50.7 km/h 50.7 km/h 62 % 0 mm 0.0 W/m2 CLR
19:36 -11.9 °C -15.7 °C 34371.3 hPa WNW 53.6 km/h 53.6 km/h 63 % 0 mm 0.0 W/m2 CLR
19:41 -12 °C -15.9 °C 34371.3 hPa NW 53.6 km/h 53.6 km/h 62 % 0 mm 0.0 W/m2 CLR
19:46 -12.1 °C -15.9 °C 34384.8 hPa NNW 71.5 km/h 71.5 km/h 62 % 0 mm 0.0 W/m2 CLR
19:51 -12.1 °C -15.8 °C 34384.8 hPa NNW 62.6 km/h 62.6 km/h 63 % 0 mm 0.0 W/m2 CLR
19:56 -12.1 °C -15.8 °C 34384.8 hPa WNW 68.6 km/h 68.6 km/h 63 % 0 mm 0.0 W/m2 CLR
20:01 -12.1 °C -15.8 °C 34384.8 hPa NW 68.6 km/h 68.6 km/h 63 % 0 mm 0.0 W/m2 CLR
20:06 -12.2 °C -15.9 °C 34384.8 hPa NW 62.6 km/h 62.6 km/h 63 % 0 mm 0.0 W/m2 CLR
20:11 -12.2 °C -15.9 °C 34384.8 hPa NW 50.7 km/h 50.7 km/h 63 % 0 mm 0.0 W/m2 CLR
20:16 -12.3 °C -15.9 °C 34395 hPa NNW 57 km/h 57 km/h 64 % 0 mm 0.0 W/m2 CLR
20:21 -12.3 °C -15.9 °C 34395 hPa NNW 74.5 km/h 74.5 km/h 64 % 0 mm 0.0 W/m2 CLR
20:26 -12.3 °C -15.8 °C 34405.1 hPa NW 71.5 km/h 71.5 km/h 65 % 0 mm 0.0 W/m2 CLR
20:31 -12.4 °C -15.8 °C 34405.1 hPa NW 53.6 km/h 53.6 km/h 66 % 0 mm 0.0 W/m2 CLR
20:36 -12.4 °C -15.7 °C 34395 hPa WNW 62.6 km/h 62.6 km/h 67 % 0 mm 0.0 W/m2 CLR
20:41 -12.4 °C -15.7 °C 34405.1 hPa NW 71.5 km/h 71.5 km/h 67 % 0 mm 0.0 W/m2 CLR
20:46 -12.6 °C -15.7 °C 34395 hPa WNW 59.5 km/h 59.5 km/h 68 % 0 mm 0.0 W/m2 CLR
20:51 -12.6 °C -15.6 °C 34405.1 hPa WNW 56.6 km/h 56.6 km/h 69 % 0 mm 0.0 W/m2 CLR
20:56 -12.7 °C -15.6 °C 34405.1 hPa WNW 56.6 km/h 56.6 km/h 70 % 0 mm 0.0 W/m2 CLR
21:01 -12.7 °C -15.5 °C 34405.1 hPa WNW 41.7 km/h 41.7 km/h 71 % 0 mm 0.0 W/m2 CLR
21:06 -12.8 °C -15.6 °C 34418.7 hPa NW 47.6 km/h 47.6 km/h 71 % 0 mm 0.0 W/m2 CLR
21:11 -12.7 °C -15.5 °C 34428.8 hPa NW 50.7 km/h 50.7 km/h 71 % 0 mm 0.0 W/m2 CLR
21:16 -12.7 °C -15.5 °C 34418.7 hPa NW 59.5 km/h 59.5 km/h 71 % 0 mm 0.0 W/m2 CLR
21:21 -12.7 °C -15.5 °C 34428.8 hPa NW 41.7 km/h 41.7 km/h 71 % 0 mm 0.0 W/m2 CLR
21:26 -12.7 °C -15.5 °C 34428.8 hPa WNW 44.7 km/h 44.7 km/h 71 % 0 mm 0.0 W/m2 CLR
21:31 -12.7 °C -15.4 °C 34428.8 hPa WNW 47.6 km/h 47.6 km/h 72 % 0 mm 0.0 W/m2 CLR
21:36 -12.7 °C -15.3 °C 34428.8 hPa WNW 36.2 km/h 36.2 km/h 73 % 0 mm 0.0 W/m2 CLR
21:41 -12.8 °C -15.3 °C 34428.8 hPa NW 38.8 km/h 38.8 km/h 73 % 0 mm 0.0 W/m2 CLR
21:46 -12.8 °C -15.3 °C 34428.8 hPa NNW 29.8 km/h 29.8 km/h 73 % 0 mm 0.0 W/m2 CLR
21:51 -12.8 °C -15.3 °C 34428.8 hPa WNW 47.6 km/h 47.6 km/h 73 % 0 mm 0.0 W/m2 CLR
21:56 -12.9 °C -15.4 °C 34428.8 hPa WNW 26.9 km/h 26.9 km/h 73 % 0 mm 0.0 W/m2 CLR
22:01 -12.9 °C -15.4 °C 34442.4 hPa WNW 38.8 km/h 38.8 km/h 74 % 0 mm 0.0 W/m2 CLR
22:06 -12.9 °C -15.4 °C 34442.4 hPa WNW 50.7 km/h 50.7 km/h 74 % 0 mm 0.0 W/m2 CLR
22:11 -12.9 °C -15.4 °C 34442.4 hPa NW 47.6 km/h 47.6 km/h 74 % 0 mm 0.0 W/m2 CLR
22:16 -12.9 °C -15.2 °C 34442.4 hPa WNW 32.8 km/h 32.8 km/h 75 % 0 mm 0.0 W/m2 CLR
22:21 -12.9 °C -15.2 °C 34442.4 hPa WNW 35.7 km/h 35.7 km/h 76 % 0 mm 0.0 W/m2 CLR
22:26 -13 °C -15.1 °C 34442.4 hPa WNW 32.8 km/h 32.8 km/h 77 % 0 mm 0.0 W/m2 CLR
22:31 -13 °C -15.1 °C 34442.4 hPa WNW 33.6 km/h 33.6 km/h 77 % 0 mm 0.0 W/m2 CLR
22:36 -13.1 °C -15.2 °C 34452.6 hPa West 29.8 km/h 29.8 km/h 77 % 0 mm 0.0 W/m2 CLR
22:41 -13.1 °C -15.2 °C 34452.6 hPa West 29.8 km/h 29.8 km/h 77 % 0 mm 0.0 W/m2 CLR
22:46 -13.1 °C -15.2 °C 34452.6 hPa WNW 29.8 km/h 29.8 km/h 77 % 0 mm 0.0 W/m2 CLR
22:51 -13.1 °C -15.2 °C 34452.6 hPa West 35.7 km/h 35.7 km/h 77 % 0 mm 0.0 W/m2 CLR
22:56 -13 °C -15.2 °C 34452.6 hPa WNW 26.9 km/h 26.9 km/h 76 % 0 mm 0.0 W/m2 CLR
23:01 -13 °C -15.2 °C 34452.6 hPa West 32.8 km/h 32.8 km/h 76 % 0 mm 0.0 W/m2 CLR
23:06 -13 °C -15.3 °C 34452.6 hPa WNW 41.7 km/h 41.7 km/h 75 % 0 mm 0.0 W/m2 CLR
23:11 -13 °C -15.4 °C 34452.6 hPa West 38.8 km/h 38.8 km/h 74 % 0 mm 0.0 W/m2 CLR
23:16 -12.9 °C -15.4 °C 34462.7 hPa WNW 44.7 km/h 44.7 km/h 74 % 0 mm 0.0 W/m2 CLR
23:21 -13 °C -15.4 °C 34462.7 hPa WNW 51.8 km/h 51.8 km/h 74 % 0 mm 0.0 W/m2 CLR
23:26 -13 °C -15.4 °C 34462.7 hPa West 38.8 km/h 38.8 km/h 74 % 0 mm 0.0 W/m2 CLR
23:31 -13 °C -15.4 °C 34462.7 hPa NW 50.7 km/h 50.7 km/h 74 % 0 mm 0.0 W/m2 CLR
23:36 -13 °C -15.4 °C 34462.7 hPa WNW 35.7 km/h 35.7 km/h 74 % 0 mm 0.0 W/m2 CLR
23:41 -13 °C -15.4 °C 34476.3 hPa WNW 41.4 km/h 41.4 km/h 74 % 0 mm 0.0 W/m2 CLR
23:46 -13 °C -15.4 °C 34476.3 hPa WNW 29.8 km/h 29.8 km/h 74 % 0 mm 0.0 W/m2 CLR
23:51 -12.9 °C -15.4 °C 34476.3 hPa NW 36.2 km/h 36.2 km/h 74 % 0 mm 0.0 W/m2 CLR
23:56 -12.9 °C -15.4 °C 34476.3 hPa West 32.8 km/h 32.8 km/h 74 % 0 mm 0.0 W/m2 CLR
Lo Temps de Massalio
Compliments of Weather Underground - 1.25 mb